Alder Bend, New York
Current Conditions -  °F | °C
As of 6:53 PM on Friday 31 Oct 2014 (Local Time) from KPBG Reporting Station
Overcast Overcast  
Wind Chill: 37°   Ceiling: 10000
Heat Index: 43°   Visibility: 10mi
Dew Point: 28°   Wind: 10mph
Humidity: 56%   Direction: 360°N
Pressure: 30.06"   Gusts: NA
Location:  44.8543°N, 73.663°W
Report Text: KPBG 312253Z AUTO 36009KT 10SM OVC100 06/M02 A3006 RMK AO2 SLP181 T00611022
Loading
Personal Weather Stations






























Interactive Weather Map
Tropical Storm Tracking
New forecast layout! Learn more

10-Day Weather Forecast

Advertisements
Track Severe Weather on mobile